createdAt,value
2019-06-15T00:00:24.837Z,81.8
2019-06-15T00:03:28.498Z,82
2019-06-15T00:04:29.889Z,81.9
2019-06-15T00:06:32.431Z,82.1
2019-06-15T00:07:33.829Z,82
2019-06-15T00:08:35.215Z,81.9
2019-06-15T00:09:35.981Z,81.8
2019-06-15T00:11:38.533Z,81.6
2019-06-15T00:12:39.926Z,81.4
2019-06-15T00:13:41.341Z,81.5
2019-06-15T00:16:45.011Z,82
2019-06-15T00:17:46.403Z,81.8
2019-06-15T00:18:47.801Z,81.7
2019-06-15T00:19:48.558Z,81.7
2019-06-15T00:20:49.953Z,81.7
2019-06-15T00:22:52.532Z,81.6
2019-06-15T00:23:53.929Z,81.1
2019-06-15T00:24:55.323Z,81.4
2019-06-15T00:25:56.758Z,81.2
2019-06-15T00:26:58.150Z,81.1
2019-06-15T00:27:59.547Z,81.6
2019-06-15T00:29:00.935Z,81.2
2019-06-15T00:30:01.715Z,80.2
2019-06-15T00:31:03.133Z,80
2019-06-15T00:32:04.528Z,79.7
2019-06-15T00:33:05.928Z,79.3
2019-06-15T00:34:07.316Z,79
2019-06-15T00:35:08.715Z,79
2019-06-15T00:36:10.150Z,79
2019-06-15T00:37:11.543Z,79.1
2019-06-15T00:38:12.931Z,79.4
2019-06-15T00:39:14.324Z,79.8
2019-06-15T00:40:15.090Z,80.1
2019-06-15T00:41:16.502Z,80.1
2019-06-15T00:42:17.887Z,80
2019-06-15T00:43:19.279Z,79.8
2019-06-15T00:44:20.684Z,79.5
2019-06-15T00:50:27.119Z,77.6
2019-06-15T00:51:28.535Z,77.2
2019-06-15T00:52:29.933Z,77.3
2019-06-15T00:53:31.321Z,77.6
2019-06-15T00:54:32.719Z,77.2
2019-06-15T00:55:34.002Z,77.6
2019-06-15T00:56:35.430Z,77.3
2019-06-15T00:57:36.852Z,74.4
2019-06-15T00:59:39.374Z,76
2019-06-15T01:00:40.145Z,74.9
2019-06-15T01:01:41.558Z,70.9
2019-06-15T01:02:42.961Z,67.2
2019-06-15T01:03:44.356Z,65.9
2019-06-15T01:04:45.758Z,65.9
2019-06-15T01:05:47.147Z,66.1
2019-06-15T01:06:48.557Z,65.9
2019-06-15T01:07:49.951Z,67
2019-06-15T01:08:51.341Z,68.4
2019-06-15T01:09:52.739Z,70.5
2019-06-15T01:12:55.779Z,70.7
2019-06-15T01:13:57.176Z,69.1
2019-06-15T01:14:58.575Z,69.7
2019-06-15T01:15:59.968Z,70
2019-06-15T01:17:01.392Z,70.5
2019-06-15T01:18:02.783Z,71
2019-06-15T01:19:04.178Z,71.1
2019-06-15T01:20:05.570Z,71.7
2019-06-15T01:21:06.334Z,73.5
2019-06-15T01:22:07.752Z,72.9
2019-06-15T01:24:10.280Z,73.8
2019-06-15T01:25:11.671Z,73.8
2019-06-15T01:28:15.366Z,75.7
2019-06-15T01:29:16.769Z,76.1
2019-06-15T01:30:18.147Z,76.7
2019-06-15T01:31:18.928Z,77.3
2019-06-15T01:32:20.317Z,78
2019-06-15T01:37:26.301Z,80.4
2019-06-15T01:38:27.697Z,79.9
2019-06-15T01:39:29.076Z,81.1
2019-06-15T01:40:30.477Z,80.6
2019-06-15T01:41:31.226Z,80.8
2019-06-15T01:42:32.642Z,80.7
2019-06-15T01:43:34.034Z,81.5
2019-06-15T01:46:37.687Z,81
2019-06-15T01:47:39.099Z,80.5
2019-06-15T01:48:40.504Z,80.7
2019-06-15T01:50:43.493Z,80
2019-06-15T01:51:44.255Z,79.8
2019-06-15T01:52:45.675Z,79.4
2019-06-15T01:55:49.328Z,77
2019-06-15T01:56:50.719Z,78
2019-06-15T01:58:53.268Z,78
2019-06-15T01:59:54.668Z,79
2019-06-15T02:00:56.077Z,78.7
2019-06-15T02:01:56.974Z,79.4
2019-06-15T02:02:58.364Z,79.4
2019-06-15T02:03:59.778Z,79.5
2019-06-15T02:05:01.168Z,79.8
2019-06-15T02:06:02.995Z,79.8
2019-06-15T02:12:08.375Z,75.5
2019-06-15T02:13:09.772Z,74.4
2019-06-15T02:15:12.306Z,74.4
2019-06-15T02:16:13.703Z,74.5
2019-06-15T02:22:20.125Z,76.6
2019-06-15T02:23:21.526Z,76.1
2019-06-15T02:26:25.399Z,76.1
2019-06-15T02:27:26.808Z,75.7
2019-06-15T02:28:28.222Z,76.1
2019-06-15T02:30:30.759Z,75.9
2019-06-15T02:31:32.144Z,76.1
2019-06-15T02:32:32.900Z,76.1
2019-06-15T02:33:34.308Z,75.8
2019-06-15T02:36:37.963Z,75.3
2019-06-15T02:37:39.367Z,75.8
2019-06-15T02:39:41.913Z,75.6
2019-06-15T02:40:43.310Z,75.4
2019-06-15T02:41:44.694Z,74.9
2019-06-15T02:42:45.458Z,74.9
2019-06-15T02:43:46.865Z,74.5
2019-06-15T02:45:49.403Z,75
2019-06-15T02:46:50.795Z,75.6
2019-06-15T02:51:57.010Z,69.6
2019-06-15T02:52:57.772Z,69.9
2019-06-15T02:53:59.191Z,68.7
2019-06-15T02:55:00.592Z,68.2
2019-06-15T02:59:05.384Z,67.3
2019-06-15T03:00:06.783Z,67
2019-06-15T03:01:08.179Z,67.6
2019-06-15T03:02:09.579Z,67.6
2019-06-15T03:03:10.347Z,67.6
2019-06-15T03:04:11.762Z,67.5
2019-06-15T03:05:13.167Z,68.2
2019-06-15T03:12:21.347Z,67.8
2019-06-15T03:13:22.116Z,68.3
2019-06-15T03:14:23.531Z,69.1
2019-06-15T03:15:24.923Z,69.4
2019-06-15T03:16:26.323Z,69.8
2019-06-15T03:17:27.720Z,70.1
2019-06-15T03:18:29.109Z,70.5
2019-06-15T03:19:30.527Z,70.8
2019-06-15T03:20:31.936Z,71.1
2019-06-15T03:21:33.337Z,71.3
2019-06-15T03:22:34.725Z,71.4
2019-06-15T03:23:35.484Z,71.4
2019-06-15T03:24:36.895Z,71.9
2019-06-15T03:25:38.277Z,72
2019-06-15T03:26:39.678Z,72.3
2019-06-15T03:27:41.083Z,72.4
2019-06-15T03:33:47.534Z,71.8
2019-06-15T03:34:48.924Z,72
2019-06-15T03:40:55.992Z,72
2019-06-15T03:41:57.385Z,72
2019-06-15T03:42:58.782Z,69.6
2019-06-15T03:43:59.549Z,69.6
2019-06-15T03:46:02.089Z,69.6
2019-06-15T03:47:03.496Z,69.9
2019-06-15T03:48:04.891Z,69.6
2019-06-15T03:51:08.564Z,68.7
2019-06-15T03:52:12.392Z,68.8
2019-06-15T03:58:15.446Z,70.2
2019-06-15T03:59:16.840Z,70.4
2019-06-15T04:01:19.405Z,70.4
2019-06-15T04:02:20.795Z,70
2019-06-15T04:03:22.190Z,70.3
2019-06-15T04:05:24.080Z,69.8
2019-06-15T04:06:25.488Z,70.1
2019-06-15T04:07:26.877Z,70.2
2019-06-15T04:08:28.288Z,70.2
2019-06-15T04:10:30.827Z,70.8
2019-06-15T04:11:32.220Z,70.4
2019-06-15T04:12:33.622Z,70.7
2019-06-15T04:13:35.005Z,70.9
2019-06-15T04:14:35.774Z,70.7
2019-06-15T04:15:37.160Z,70.3
2019-06-15T04:16:38.590Z,70.1
2019-06-15T04:19:42.247Z,69.3
2019-06-15T04:20:43.637Z,68.8
2019-06-15T04:21:45.061Z,68.2
2019-06-15T04:22:46.457Z,67.9
2019-06-15T04:23:47.852Z,67.6
2019-06-15T04:24:48.616Z,67.8
2019-06-15T04:25:50.030Z,67.3
2019-06-15T04:30:55.965Z,67.4
2019-06-15T04:31:57.356Z,67
2019-06-15T04:32:58.766Z,67.5
2019-06-15T04:34:00.166Z,67
2019-06-15T04:35:00.928Z,67
2019-06-15T04:36:02.352Z,67.1
2019-06-15T04:37:03.750Z,66.9
2019-06-15T04:38:05.142Z,66.9
2019-06-15T04:39:06.536Z,66.6
2019-06-15T04:40:07.931Z,66.5
2019-06-15T04:41:09.352Z,66.8
2019-06-15T04:42:10.742Z,66.3
2019-06-15T04:43:12.132Z,66.5
2019-06-15T04:44:13.524Z,67
2019-06-15T04:47:16.571Z,66.4
2019-06-15T04:48:17.965Z,66.6
2019-06-15T04:49:19.414Z,66.3
2019-06-15T04:50:20.799Z,66.9
2019-06-15T04:51:22.222Z,67.2
2019-06-15T04:52:23.632Z,67.3
2019-06-15T04:53:25.033Z,67.8
2019-06-15T04:54:26.424Z,67.1
2019-06-15T04:55:27.170Z,67.6
2019-06-15T04:56:28.595Z,67.4
2019-06-15T04:57:29.982Z,67.3
2019-06-15T04:58:31.403Z,67.7
2019-06-15T04:59:32.799Z,67.7
2019-06-15T05:00:34.193Z,68.1
2019-06-15T05:01:35.608Z,67.8
2019-06-15T05:02:37.000Z,67.4
2019-06-15T05:04:39.527Z,66.6
2019-06-15T05:05:40.322Z,66.2
2019-06-15T05:06:41.726Z,66.5
2019-06-15T05:08:44.255Z,66.3
2019-06-15T05:09:45.651Z,66.3
2019-06-15T05:10:46.512Z,66.6
2019-06-15T05:12:49.041Z,67
2019-06-15T05:13:50.430Z,67
2019-06-15T05:14:51.845Z,67.4
2019-06-15T05:17:54.912Z,66.3
2019-06-15T05:18:56.302Z,66.6
2019-06-15T05:19:57.696Z,66.2
2019-06-15T05:22:00.226Z,66.5
2019-06-15T05:23:01.629Z,67
2019-06-15T05:25:03.940Z,65.7
2019-06-15T05:28:06.970Z,65.9
2019-06-15T05:29:08.360Z,65.8
2019-06-15T05:30:09.759Z,64.8
2019-06-15T05:32:12.300Z,64.6
2019-06-15T05:33:13.700Z,64.3
2019-06-15T05:34:15.111Z,64.3
2019-06-15T05:35:16.502Z,65.2
2019-06-15T05:36:17.182Z,64.3
2019-06-15T05:38:19.736Z,64.6
2019-06-15T05:39:21.125Z,64.4
2019-06-15T05:40:22.511Z,64.6
2019-06-15T05:41:23.930Z,64.4
2019-06-15T05:42:25.353Z,63.7
2019-06-15T05:43:26.750Z,63.4
2019-06-15T05:46:29.773Z,63.2
2019-06-15T05:47:31.187Z,63
2019-06-15T05:49:33.712Z,63
2019-06-15T05:50:35.121Z,61.9
2019-06-15T05:53:39.118Z,62.5
2019-06-15T05:55:41.644Z,62.3
2019-06-15T05:56:42.422Z,62.6
2019-06-15T06:01:48.337Z,62.7
2019-06-15T06:02:49.735Z,62.1
2019-06-15T06:03:51.151Z,62.4
2019-06-15T06:04:52.543Z,62
2019-06-15T06:05:53.945Z,61.9
2019-06-15T06:06:54.727Z,61.7
2019-06-15T06:07:56.125Z,60.9
2019-06-15T06:08:57.605Z,60.7
2019-06-15T06:09:59.003Z,61.2
2019-06-15T06:18:07.691Z,61
2019-06-15T06:19:09.109Z,60.4
2019-06-15T06:21:11.677Z,59.4
2019-06-15T06:22:13.103Z,59.4
2019-06-15T06:23:14.503Z,59.5
2019-06-15T06:26:18.189Z,59.1
2019-06-15T06:31:23.641Z,58.8
2019-06-15T06:33:26.163Z,59.1
2019-06-15T06:34:27.627Z,58.3
2019-06-15T06:35:29.041Z,58.2
2019-06-15T06:36:30.428Z,57.9
2019-06-15T06:37:31.193Z,57.5
2019-06-15T06:39:33.818Z,57.7
2019-06-15T06:40:35.211Z,58
2019-06-15T06:41:36.609Z,58
2019-06-15T06:42:38.002Z,57.7
2019-06-15T06:43:39.424Z,57.3
2019-06-15T06:44:40.815Z,57.1
2019-06-15T06:45:42.203Z,56.6
2019-06-15T06:47:43.757Z,56.8
2019-06-15T06:48:45.183Z,56.7
2019-06-15T06:52:49.963Z,57.1
2019-06-15T06:53:51.375Z,56.9
2019-06-15T06:54:52.771Z,57.4
2019-06-15T06:55:54.159Z,57.5
2019-06-15T06:56:55.561Z,57.3
2019-06-15T06:57:57.551Z,56.5
2019-06-15T06:59:58.061Z,57.8
2019-06-15T07:02:00.589Z,56.4
2019-06-15T07:03:01.980Z,57.1
2019-06-15T07:05:04.526Z,56.8
2019-06-15T07:06:05.924Z,56.2
2019-06-15T07:07:07.328Z,56.4
2019-06-15T07:08:08.082Z,56
2019-06-15T07:09:09.503Z,55.8
2019-06-15T07:14:15.441Z,53.9
2019-06-15T07:15:16.825Z,56.5
2019-06-15T07:16:18.227Z,58.1
2019-06-15T07:17:19.678Z,59.7
2019-06-15T07:18:20.416Z,60.2
2019-06-15T07:20:22.961Z,60.4
2019-06-15T07:21:24.363Z,60.5
2019-06-15T07:22:25.759Z,60.7
2019-06-15T07:23:27.155Z,60.4
2019-06-15T07:24:28.563Z,60.9
2019-06-15T07:25:29.973Z,60.5
2019-06-15T07:26:31.372Z,59.9
2019-06-15T07:27:32.763Z,59.3
2019-06-15T07:28:33.524Z,59.4
2019-06-15T07:30:36.067Z,58.3
2019-06-15T07:33:39.729Z,59.4
2019-06-15T07:34:41.122Z,59.4
2019-06-15T07:35:42.538Z,59.8
2019-06-15T07:36:43.932Z,59.8
2019-06-15T07:37:45.326Z,60.3
2019-06-15T07:38:46.085Z,61
2019-06-15T07:39:47.498Z,61.4
2019-06-15T07:40:48.911Z,59.5
2019-06-15T07:41:50.314Z,59.4
2019-06-15T07:42:51.731Z,60.1
2019-06-15T07:44:54.273Z,58.9
2019-06-15T07:45:55.579Z,58.3
2019-06-15T07:46:56.977Z,57.5
2019-06-15T07:48:01.150Z,57.8
2019-06-15T07:48:59.170Z,58.1
2019-06-15T07:50:00.340Z,56.6
2019-06-15T07:51:01.740Z,55.5
2019-06-15T07:53:04.443Z,55.3
2019-06-15T07:56:07.326Z,54.7
2019-06-15T07:57:08.785Z,53.7
2019-06-15T07:58:24.951Z,53.1
2019-06-15T08:00:12.112Z,52.5
2019-06-15T08:02:14.811Z,52.1
2019-06-15T08:09:21.458Z,55.3
2019-06-15T08:10:22.852Z,54.8
2019-06-15T08:15:28.814Z,54.8
2019-06-15T08:16:30.218Z,55.5
2019-06-15T08:17:31.607Z,55.7
2019-06-15T08:18:32.994Z,55.7
2019-06-15T08:19:33.909Z,54.8
2019-06-15T08:20:34.777Z,54.3
2019-06-15T08:21:39.281Z,55.4
2019-06-15T08:22:37.632Z,53.2
2019-06-15T08:23:39.061Z,52.8
2019-06-15T08:24:40.427Z,52.1
2019-06-15T08:25:41.855Z,52.8
2019-06-15T08:26:43.246Z,50.9
2019-06-15T08:27:44.646Z,50.8
2019-06-15T08:28:46.038Z,50.7
2019-06-15T08:29:46.811Z,50.9
2019-06-15T08:30:48.278Z,52.1
2019-06-15T08:33:51.948Z,49.1
2019-06-15T08:34:53.354Z,50.1
2019-06-15T08:36:55.458Z,49.3
2019-06-15T08:37:56.858Z,50.3
2019-06-15T08:39:58.808Z,52.6
2019-06-15T08:42:01.377Z,53.3
2019-06-15T08:45:05.039Z,53.6
2019-06-15T08:46:06.430Z,53.9
2019-06-15T08:48:08.909Z,53.7
2019-06-15T08:50:10.801Z,54.5
2019-06-15T08:51:12.198Z,55.4
2019-06-15T08:54:15.884Z,55.1
2019-06-15T08:55:17.272Z,56.6
2019-06-15T08:57:19.817Z,56.4
2019-06-15T09:00:22.836Z,56.6
2019-06-15T09:02:25.532Z,57.4
2019-06-15T09:03:26.934Z,57
2019-06-15T09:10:34.486Z,58.3
2019-06-15T09:12:37.030Z,58.2
2019-06-15T09:15:40.690Z,55.7
2019-06-15T09:16:42.087Z,55.4
2019-06-15T09:20:46.258Z,56.5
2019-06-15T09:21:47.653Z,55.7
2019-06-15T09:29:57.261Z,54.7
2019-06-15T09:30:58.021Z,55.1
2019-06-15T09:31:59.410Z,54.9
2019-06-15T09:35:03.053Z,55.4
2019-06-15T09:36:04.480Z,55
2019-06-15T09:37:05.861Z,54.2
2019-06-15T09:38:07.266Z,53.5
2019-06-15T09:40:10.049Z,54.6
2019-06-15T09:41:10.386Z,54.2
2019-06-15T09:42:11.779Z,54.1
2019-06-15T09:45:15.462Z,53.2
2019-06-15T09:47:18.000Z,53.5
2019-06-15T09:48:19.392Z,54.2
2019-06-15T09:49:23.412Z,53.9
2019-06-15T09:51:22.291Z,53.7
2019-06-15T09:52:23.740Z,54
2019-06-15T09:53:25.129Z,53.2
2019-06-15T09:55:30.430Z,53.1
2019-06-15T09:57:29.954Z,53.9
2019-06-15T09:59:32.481Z,54.6
2019-06-15T10:00:33.675Z,54
2019-06-15T10:01:34.442Z,54
2019-06-15T10:02:35.866Z,54.4
2019-06-15T10:03:37.257Z,54.3
2019-06-15T10:04:38.702Z,54.4
2019-06-15T10:05:40.100Z,53.9
2019-06-15T10:06:41.509Z,54
2019-06-15T10:07:45.935Z,54.7
2019-06-15T10:10:46.555Z,53.6
2019-06-15T10:11:47.325Z,53.8
2019-06-15T10:12:48.733Z,54.7
2019-06-15T10:13:50.132Z,54.5
2019-06-15T10:21:58.831Z,52.4
2019-06-15T10:23:00.249Z,53.2
2019-06-15T10:24:01.638Z,54.5
2019-06-15T10:25:03.033Z,54.6
2019-06-15T10:26:04.434Z,54.6
2019-06-15T10:27:06.030Z,52.8
2019-06-15T10:28:06.451Z,53
2019-06-15T10:29:07.854Z,52.9
2019-06-15T10:31:10.366Z,53.7
2019-06-15T10:32:11.121Z,53.4
2019-06-15T10:33:12.547Z,53.3
2019-06-15T10:34:13.948Z,54.5
2019-06-15T10:39:19.922Z,54.3
2019-06-15T10:42:23.081Z,54.8
2019-06-15T10:43:24.533Z,53.2
2019-06-15T10:45:27.065Z,52.8
2019-06-15T10:46:31.400Z,53.9
2019-06-15T10:49:32.041Z,53.8
2019-06-15T10:50:33.432Z,54.1
2019-06-15T10:51:34.829Z,53.1
2019-06-15T10:52:35.613Z,52.6
2019-06-15T10:53:37.019Z,52.3
2019-06-15T11:00:44.781Z,52.9
2019-06-15T11:01:46.176Z,52.7
2019-06-15T11:02:46.932Z,52.8
2019-06-15T11:03:48.340Z,52.4
2019-06-15T11:20:06.789Z,52.6
2019-06-15T11:23:09.820Z,52.6
2019-06-15T11:24:11.223Z,53.1
2019-06-15T11:26:13.759Z,53.5
2019-06-15T11:27:15.156Z,54.3
2019-06-15T11:30:18.835Z,54
2019-06-15T11:32:21.360Z,54.2
2019-06-15T11:34:23.235Z,54.6
2019-06-15T11:37:26.926Z,54.9
2019-06-15T11:38:28.325Z,55.1
2019-06-15T11:40:30.867Z,54.7
2019-06-15T11:41:32.261Z,54.1
2019-06-15T11:43:34.140Z,55.2
2019-06-15T11:44:35.553Z,55.3
2019-06-15T11:46:38.085Z,54.6
2019-06-15T11:47:39.478Z,54.3
2019-06-15T11:53:45.897Z,53.1
2019-06-15T11:54:47.293Z,52.5
2019-06-15T11:56:49.832Z,53.4
2019-06-15T11:57:51.223Z,53.5
2019-06-15T11:59:53.744Z,53.7
2019-06-15T12:00:55.160Z,54
2019-06-15T12:01:56.558Z,53.3
2019-06-15T12:02:57.947Z,54
2019-06-15T12:03:58.732Z,53.8
2019-06-15T12:05:00.124Z,54.3
2019-06-15T12:10:06.126Z,52.4
2019-06-15T12:11:07.550Z,53
2019-06-15T12:12:08.952Z,53.2
2019-06-15T12:14:13.938Z,53.9
2019-06-15T12:15:11.970Z,53.2
2019-06-15T12:18:15.647Z,54
2019-06-15T12:20:18.166Z,53.7
2019-06-15T12:21:19.590Z,54.6
2019-06-15T12:22:20.989Z,53.4
2019-06-15T12:23:22.386Z,53.5
2019-06-15T12:24:23.140Z,54.3
2019-06-15T12:25:24.548Z,53.7
2019-06-15T12:26:25.974Z,54.8
2019-06-15T12:27:27.376Z,54.8
2019-06-15T12:28:28.770Z,55.5
2019-06-15T12:32:32.946Z,55.5
2019-06-15T12:33:34.348Z,56
2019-06-15T12:34:35.106Z,55.7
2019-06-15T12:35:36.500Z,55.6
2019-06-15T12:36:37.927Z,55.5
2019-06-15T12:37:39.326Z,55.3
2019-06-15T12:38:40.736Z,56.1
2019-06-15T12:39:42.386Z,55.5
2019-06-15T12:40:42.761Z,55.9
2019-06-15T12:43:49.099Z,57.2
2019-06-15T12:44:46.833Z,56.5
2019-06-15T12:45:48.222Z,56
2019-06-15T12:47:50.779Z,56.7
2019-06-15T12:48:51.362Z,56.6
2019-06-15T12:49:52.244Z,57.1
2019-06-15T12:51:54.803Z,55.4
2019-06-15T12:52:56.200Z,55.4
2019-06-15T12:53:57.595Z,55.4
2019-06-15T12:54:57.850Z,56.1
2019-06-15T12:55:59.248Z,56.3
2019-06-15T12:58:01.588Z,55.9
2019-06-15T12:59:02.965Z,56.2
2019-06-15T13:02:06.651Z,57.9
2019-06-15T13:03:08.044Z,58.2
2019-06-15T13:04:09.444Z,58
2019-06-15T13:05:10.199Z,58.3
2019-06-15T13:06:11.614Z,58.1
2019-06-15T13:12:18.722Z,57
2019-06-15T13:13:20.107Z,56.4
2019-06-15T13:14:20.680Z,56
2019-06-15T13:15:21.476Z,56.1
2019-06-15T13:16:22.875Z,56.1
2019-06-15T13:17:23.318Z,56
2019-06-15T13:18:27.397Z,56.1
2019-06-15T13:19:25.764Z,56.8
2019-06-15T13:20:27.176Z,57.7
2019-06-15T13:21:28.585Z,56.6
2019-06-15T13:22:29.987Z,56.7
2019-06-15T13:23:31.374Z,57.2
2019-06-15T13:24:32.795Z,57.9
2019-06-15T13:25:33.558Z,58
2019-06-15T13:29:38.127Z,57.9
2019-06-15T13:30:39.526Z,58.4
2019-06-15T13:35:44.849Z,58.2
2019-06-15T13:36:46.258Z,58
2019-06-15T13:37:47.827Z,57.9
2019-06-15T13:38:48.218Z,57.1
2019-06-15T13:42:53.220Z,57.9
2019-06-15T13:43:53.621Z,57.8
2019-06-15T13:44:55.007Z,57.8
2019-06-15T13:45:55.762Z,58.1
2019-06-15T13:46:57.167Z,57.9
2019-06-15T13:50:00.587Z,57.8
2019-06-15T13:51:02.015Z,57.5
2019-06-15T13:52:03.400Z,57.5
2019-06-15T13:53:04.821Z,58
2019-06-15T13:54:06.225Z,57.2
2019-06-15T13:56:08.123Z,58.2
2019-06-15T13:57:09.548Z,58.2
2019-06-15T13:59:12.073Z,57.5
2019-06-15T14:00:13.461Z,58.1
2019-06-15T14:02:15.769Z,57.6
2019-06-15T14:03:17.169Z,57.8
2019-06-15T14:06:20.228Z,58.7
2019-06-15T14:09:23.914Z,59.6
2019-06-15T14:10:25.318Z,60
2019-06-15T14:11:26.704Z,59.7
2019-06-15T14:12:28.115Z,59.6
2019-06-15T14:13:29.517Z,59.3
2019-06-15T14:15:32.033Z,59.5
2019-06-15T14:20:37.526Z,58.7
2019-06-15T14:21:38.927Z,59.1
2019-06-15T14:23:41.471Z,58.1
2019-06-15T14:24:42.869Z,58.9
2019-06-15T14:25:44.258Z,58.9
2019-06-15T14:26:45.027Z,58.7
2019-06-15T14:27:46.441Z,58.6
2019-06-15T14:30:50.097Z,59.2
2019-06-15T14:31:51.492Z,58.8
2019-06-15T14:33:54.031Z,59.5
2019-06-15T14:34:55.433Z,58.8
2019-06-15T14:35:56.826Z,58.7
2019-06-15T14:37:58.739Z,59
2019-06-15T14:40:01.279Z,58.9
2019-06-15T14:43:04.937Z,59.4
2019-06-15T14:44:06.335Z,60.1
2019-06-15T14:45:07.739Z,59.8
2019-06-15T14:46:09.129Z,59.7
2019-06-15T14:53:16.685Z,59.4
2019-06-15T14:54:18.108Z,59.7
2019-06-15T14:57:20.898Z,59.2
2019-06-15T14:58:22.303Z,59.2
2019-06-15T14:59:26.359Z,59
2019-06-15T15:01:26.377Z,59.4
2019-06-15T15:03:28.064Z,59.4
2019-06-15T15:05:30.895Z,59
2019-06-15T15:06:31.685Z,59.9
2019-06-15T15:07:32.538Z,59.2
2019-06-15T15:08:36.902Z,59
2019-06-15T15:13:39.355Z,59.6
2019-06-15T15:16:42.123Z,59.8
2019-06-15T15:18:46.613Z,60.1
2019-06-15T15:19:46.814Z,59.8
2019-06-15T15:24:50.155Z,60.5
2019-06-15T15:26:52.809Z,60.7
2019-06-15T15:27:53.597Z,60.4
2019-06-15T15:28:56.817Z,60.3
2019-06-15T15:34:07.640Z,60.7
2019-06-15T15:38:06.404Z,59.5
2019-06-15T15:39:10.165Z,60
2019-06-15T15:40:07.699Z,59.8
2019-06-15T15:44:11.217Z,61.2
2019-06-15T15:45:12.616Z,60.6
2019-06-15T15:46:16.725Z,60.9
2019-06-15T15:48:20.999Z,61
2019-06-15T15:49:16.680Z,61.1
2019-06-15T15:50:17.852Z,60.6
2019-06-15T15:51:18.238Z,61.1
2019-06-15T15:52:19.248Z,61.5
2019-06-15T15:55:22.815Z,61.2
2019-06-15T15:56:24.209Z,61
2019-06-15T16:02:51.685Z,62.1
2019-06-15T16:03:31.295Z,62.3
2019-06-15T16:04:32.263Z,62.1
2019-06-15T16:05:36.775Z,61.9
2019-06-15T16:06:36.455Z,62.2
2019-06-15T16:07:36.589Z,62.5
2019-06-15T16:10:38.702Z,62.1
2019-06-15T16:11:39.290Z,61.1
2019-06-15T16:13:41.655Z,61.3
2019-06-15T16:14:43.047Z,62
2019-06-15T16:19:48.370Z,62.8
2019-06-15T16:20:49.575Z,62.6
2019-06-15T16:21:50.968Z,63
2019-06-15T16:23:58.329Z,62.8
2019-06-15T16:25:55.992Z,62.9
2019-06-15T16:26:57.386Z,63
2019-06-15T16:28:59.662Z,63.4
2019-06-15T16:30:01.098Z,63.5
2019-06-15T16:31:13.953Z,63.7
2019-06-15T16:33:07.931Z,62.7
2019-06-15T16:34:05.369Z,63.2
2019-06-15T16:35:06.798Z,63.2
2019-06-15T16:36:08.207Z,63.1
2019-06-15T16:38:11.035Z,63
2019-06-15T16:40:13.127Z,62.7
2019-06-15T16:42:15.641Z,63
2019-06-15T16:43:17.844Z,62.2
2019-06-15T16:44:18.105Z,62
2019-06-15T16:46:20.770Z,63.1
2019-06-15T16:48:22.744Z,63
2019-06-15T16:49:23.496Z,63.1
2019-06-15T16:50:26.730Z,63.5
2019-06-15T16:51:27.152Z,63.5
2019-06-15T16:55:31.354Z,63.2
2019-06-15T16:56:32.257Z,63.1
2019-06-15T16:57:33.643Z,62.8
2019-06-15T16:58:36.519Z,62.8
2019-06-15T16:59:36.559Z,63.5
2019-06-15T17:00:36.972Z,63.7
2019-06-15T17:01:38.378Z,62.5
2019-06-15T17:02:39.779Z,62.3
2019-06-15T17:04:42.231Z,62.9
2019-06-15T17:05:43.689Z,63.4
2019-06-15T17:06:46.236Z,64
2019-06-15T17:07:46.610Z,63.8
2019-06-15T17:08:48.009Z,63.7
2019-06-15T17:09:48.607Z,63.5
2019-06-15T17:11:51.497Z,63.6
2019-06-15T17:14:54.711Z,64
2019-06-15T17:15:57.351Z,64.1
2019-06-15T17:16:56.909Z,64.7
2019-06-15T17:17:57.505Z,64.1
2019-06-15T17:19:59.571Z,64.5
2019-06-15T17:21:00.645Z,65.1
2019-06-15T17:22:21.240Z,64.9
2019-06-15T17:23:02.589Z,65.3
2019-06-15T17:33:13.320Z,66
2019-06-15T17:34:16.789Z,65.9
2019-06-15T17:35:17.110Z,65.8
2019-06-15T17:36:16.478Z,65.1
2019-06-15T17:37:17.933Z,65.1
2019-06-15T17:38:19.335Z,65
2019-06-15T17:40:20.985Z,65.2
2019-06-15T17:41:22.018Z,66
2019-06-15T17:42:26.086Z,66.8
2019-06-15T17:43:23.593Z,66.2
2019-06-15T17:44:26.207Z,66.1
2019-06-15T17:45:26.850Z,66.6
2019-06-15T17:47:27.401Z,67.7
2019-06-15T17:50:30.685Z,68
2019-06-15T17:53:36.703Z,67.9
2019-06-15T17:57:37.593Z,68.3
2019-06-15T17:58:38.983Z,68.3
2019-06-15T17:59:39.567Z,68.9
2019-06-15T18:00:40.490Z,68.9
2019-06-15T18:01:41.302Z,69.4
2019-06-15T18:02:42.244Z,69.3
2019-06-15T18:03:55.197Z,69.3
2019-06-15T18:06:47.263Z,69.9
2019-06-15T18:07:48.665Z,70.2
2019-06-15T18:08:50.062Z,70.3
2019-06-15T18:09:51.464Z,70
2019-06-15T18:10:56.312Z,70.6
2019-06-15T18:11:52.743Z,70.4
2019-06-15T18:12:56.395Z,70.5
2019-06-15T18:13:56.887Z,70.5
2019-06-15T18:14:56.981Z,70.5
2019-06-15T18:17:59.653Z,70.8
2019-06-15T18:19:00.207Z,70.8
2019-06-15T18:20:01.161Z,70.3
2019-06-15T18:22:02.917Z,70.3
2019-06-15T18:23:06.218Z,70.3
2019-06-15T18:24:06.808Z,70.1
2019-06-15T18:25:06.797Z,70.1
2019-06-15T18:26:07.425Z,70.1
2019-06-15T18:27:09.853Z,70.1
2019-06-15T18:33:16.620Z,70.2
2019-06-15T18:34:17.159Z,70
2019-06-15T18:35:17.523Z,69.5
2019-06-15T18:36:18.924Z,69.6
2019-06-15T18:37:19.723Z,69.5
2019-06-15T18:38:21.145Z,69.3
2019-06-15T18:39:22.531Z,69.4
2019-06-15T18:40:23.929Z,69.5
2019-06-15T18:43:27.281Z,69.7
2019-06-15T18:45:29.814Z,69.9
2019-06-15T18:46:30.352Z,70.1
2019-06-15T18:49:32.916Z,70.6
2019-06-15T18:50:37.927Z,70.7
2019-06-15T18:51:34.533Z,71
2019-06-15T18:53:39.522Z,71.5
2019-06-15T18:55:38.886Z,72.4
2019-06-15T18:56:40.286Z,72.1
2019-06-15T18:57:41.164Z,72.6
2019-06-15T18:58:42.579Z,73.4
2019-06-15T19:00:45.128Z,72.5
2019-06-15T19:01:47.156Z,72.5
2019-06-15T19:02:46.539Z,72.4
2019-06-15T19:03:47.953Z,72.5
2019-06-15T19:05:50.819Z,73.7
2019-06-15T19:07:53.303Z,73
2019-06-15T19:08:57.581Z,73
2019-06-15T19:09:56.127Z,72.8
2019-06-15T19:11:57.013Z,73.3
2019-06-15T19:13:59.560Z,73.7
2019-06-15T19:16:01.595Z,73.5
2019-06-15T19:18:03.501Z,74.5
2019-06-15T19:19:04.940Z,74.3
2019-06-15T19:20:06.328Z,73.9
2019-06-15T19:21:07.717Z,73.7
2019-06-15T19:23:09.639Z,73.9
2019-06-15T19:24:11.060Z,74.5
2019-06-15T19:27:16.311Z,74.7
2019-06-15T19:28:16.952Z,74.1
2019-06-15T19:29:17.313Z,74.1
2019-06-15T19:30:17.673Z,74
2019-06-15T19:31:19.085Z,73.9
2019-06-15T19:32:20.286Z,74
2019-06-15T19:33:21.505Z,73.9
2019-06-15T19:35:23.343Z,74
2019-06-15T19:38:27.483Z,76.1
2019-06-15T19:39:27.871Z,76.1
2019-06-15T19:41:29.834Z,75.8
2019-06-15T19:42:30.599Z,75.7
2019-06-15T19:43:31.141Z,76.2
2019-06-15T19:44:32.615Z,76.1
2019-06-15T19:45:36.413Z,76.1
2019-06-15T19:46:36.754Z,76
2019-06-15T19:47:38.062Z,75.8
2019-06-15T19:49:38.586Z,76.4
2019-06-15T19:51:40.462Z,75.8
2019-06-15T19:54:45.401Z,75.1
2019-06-15T19:55:46.724Z,75.6
2019-06-15T19:56:46.864Z,75.4
2019-06-15T19:57:46.761Z,75.1
2019-06-15T19:58:47.153Z,74.7
2019-06-15T19:59:48.568Z,74.6
2019-06-15T20:00:49.292Z,74.7
2019-06-15T20:03:52.487Z,75.4
2019-06-15T20:05:57.031Z,76.4
2019-06-15T20:06:56.938Z,76.4
2019-06-15T20:07:57.207Z,77
2019-06-15T20:08:57.588Z,77.1
2019-06-15T20:09:59.005Z,77.6
2019-06-15T20:11:04.076Z,77.6
2019-06-15T20:12:01.433Z,77.4
2019-06-15T20:14:03.704Z,77.2
2019-06-15T20:15:06.594Z,76.9
2019-06-15T20:23:13.318Z,76.5
2019-06-15T20:25:16.233Z,76.6
2019-06-15T20:26:16.616Z,76.4
2019-06-15T20:28:19.142Z,76.9
2019-06-15T20:29:20.323Z,77.3
2019-06-15T20:30:21.300Z,77
2019-06-15T20:31:22.702Z,77.2
2019-06-15T20:32:26.389Z,77
2019-06-15T20:33:26.256Z,77.2
2019-06-15T20:34:29.557Z,77
2019-06-15T20:35:27.276Z,77.2
2019-06-15T20:36:28.672Z,77
2019-06-15T20:37:29.692Z,77.3
2019-06-15T20:38:31.186Z,77.4
2019-06-15T20:39:31.745Z,77.7
2019-06-15T20:40:33.170Z,77.7
2019-06-15T20:41:36.589Z,77.3
2019-06-15T20:42:36.835Z,77.3
2019-06-15T20:43:36.837Z,77.8
2019-06-15T20:44:37.181Z,77.5
2019-06-15T20:45:38.599Z,77.7
2019-06-15T20:47:40.668Z,78.1
2019-06-15T20:48:41.200Z,78.2
2019-06-15T20:50:43.406Z,78
2019-06-15T20:51:46.456Z,78.2
2019-06-15T20:52:47.361Z,77.7
2019-06-15T20:53:46.191Z,78.1
2019-06-15T20:54:47.606Z,78.2
2019-06-15T20:55:49.022Z,78.1
2019-06-15T20:56:50.039Z,78.3
2019-06-15T20:59:53.437Z,78.5
2019-06-15T21:00:56.574Z,78.7
2019-06-15T21:01:56.465Z,78.7
2019-06-15T21:02:56.867Z,78.2
2019-06-15T21:03:57.782Z,78.1
2019-06-15T21:04:59.173Z,77.8
2019-06-15T21:06:00.111Z,78.6
2019-06-15T21:10:07.291Z,78.9
2019-06-15T21:11:07.368Z,79
2019-06-15T21:12:06.970Z,79.3
2019-06-15T21:16:10.119Z,80.2
2019-06-15T21:17:11.517Z,80.3
2019-06-15T21:18:16.170Z,80.4
2019-06-15T21:19:13.526Z,80.5
2019-06-15T21:20:16.416Z,80.6
2019-06-15T21:21:16.196Z,80.9
2019-06-15T21:22:17.000Z,80.6
2019-06-15T21:24:17.961Z,81.4
2019-06-15T21:26:20.671Z,81.5
2019-06-15T21:27:21.226Z,81.9